Mary Ellen — WDB4416 — position and weather

sailwx.info

Track history (hours):
 
Tides and Currents Weather Stations Pressure Air Temp Water Temp Dewpoint Dewpoint Depression Visibility Wind Speed Wind Dir Waves Ship Positions

Mary Ellen

Owner: CROSS SOUND FERRY SERVICES INC, NEW LONDON, CT. More information available from US FCC via Universal Licensing System and Coast Guard Vessel Documentation Center.

Last reported at 2017-Sep-22 00:50 UTC. Time now 2017-Sep-22 10:16 UTC.
Position N 41°16' W 072°07'.

Length 80 m; draft 3.3 m.

Type: Passenger vessel. MMSI: 366898190.

Date/timePositionNaut miles runAvg speedWind from/ knotsBaromVisibWave heightAir tempDewpointWater temp
2017-Sep-22 00:50N 41°16' W 072°07'412.4
2017-Sep-22 00:30N 41°13' W 072°11'3 2.2
2017-Sep-21 23:01N 41°10' W 072°13'014.1
2017-Sep-21 23:00N 41°11' W 072°14'713.4
2017-Sep-21 22:28N 41°16' W 072°07'1 0.5
2017-Sep-21 20:54N 41°15' W 072°07'7 4.7
2017-Sep-21 19:20N 41°09' W 072°13'412.1
2017-Sep-21 18:59N 41°13' W 072°11'3 1.9
2017-Sep-21 17:08N 41°15' W 072°08'214.5
2017-Sep-21 16:59N 41°14' W 072°09'5 3.8
2017-Sep-21 15:46N 41°10' W 072°13'414.9
2017-Sep-21 15:30N 41°13' W 072°11'4 1.5
2017-Sep-21 13:02N 41°16' W 072°07'012.9
2017-Sep-21 13:00N 41°15' W 072°07'7 0.6
2017-Sep-21 01:04N 41°10' W 072°13'1 9.8
2017-Sep-21 00:59N 41°11' W 072°14'814.6
2017-Sep-21 00:25N 41°17' W 072°06'0 0.3
2017-Sep-20 22:58N 41°17' W 072°06'613.7
2017-Sep-20 22:30N 41°13' W 072°12'4 2.6
2017-Sep-20 21:10N 41°10' W 072°13'311.0
2017-Sep-20 20:54N 41°12' W 072°11'512.5
2017-Sep-20 20:30N 41°15' W 072°06'1 1.0
2017-Sep-20 19:01N 41°17' W 072°06'013.0
2017-Sep-20 18:59N 41°16' W 072°06'9 5.8
2017-Sep-20 17:21N 41°09' W 072°14'410.6
2017-Sep-20 16:59N 41°12' W 072°11'5 2.8
2017-Sep-20 15:02N 41°16' W 072°06'114.0
2017-Sep-20 14:59N 41°16' W 072°07'8 4.3
2017-Sep-20 13:05N 41°09' W 072°14'1 9.1
2017-Sep-20 13:00N 41°10' W 072°13'8 0.7
2017-Sep-20 01:04N 41°17' W 072°06'113.1
2017-Sep-20 01:00N 41°16' W 072°07'611.6
2017-Sep-20 00:30N 41°13' W 072°13'3 2.3
2017-Sep-19 23:06N 41°09' W 072°14'1 7.5
2017-Sep-19 22:59N 41°10' W 072°13'714.2
2017-Sep-19 22:30N 41°15' W 072°08'2 1.2
2017-Sep-19 20:57N 41°17' W 072°06'613.7
2017-Sep-19 20:29N 41°12' W 072°12'3 2.4
2017-Sep-19 19:14N 41°09' W 072°13'311.1
2017-Sep-19 19:00N 41°12' W 072°12'3 1.3
2017-Sep-19 16:37N 41°14' W 072°09'4 2.3
2017-Sep-19 14:59N 41°12' W 072°13'7 3.5
2017-Sep-19 12:58N 41°17' W 072°06'511.7
2017-Sep-19 12:31N 41°14' W 072°12'4 3.7
2017-Sep-19 11:27N 41°10' W 072°13'510.9
2017-Sep-19 11:00N 41°14' W 072°09'4 0.4
2017-Sep-19 02:03N 41°16' W 072°07'114.0
2017-Sep-19 01:58N 41°16' W 072°08'7 7.8
2017-Sep-19 01:00N 41°10' W 072°13'814.3
2017-Sep-19 00:25N 41°16' W 072°07'1 0.5
2017-Sep-18 22:54N 41°17' W 072°06'512.5
2017-Sep-18 22:30N 41°13' W 072°10'4 3.1
2017-Sep-18 21:09N 41°10' W 072°13'210.5
2017-Sep-18 20:57N 41°12' W 072°14'713.2
2017-Sep-18 20:27N 41°16' W 072°07'1 0.7
2017-Sep-18 18:51N 41°17' W 072°06'513.3
2017-Sep-18 18:31N 41°13' W 072°10'5 3.7
2017-Sep-18 17:13N 41°09' W 072°13'312.1
2017-Sep-18 16:59N 41°12' W 072°12'7 3.3
2017-Sep-18 14:55N 41°17' W 072°06'613.4
2017-Sep-18 14:29N 41°12' W 072°11'1 0.7
2017-Sep-18 12:51N 41°12' W 072°13'615.1
2017-Sep-18 12:27N 41°16' W 072°07'1 0.1
2017-Sep-18 00:53N 41°17' W 072°06'512.6
2017-Sep-18 00:30N 41°13' W 072°10'5 3.6
2017-Sep-17 23:14N 41°10' W 072°13'210.5
2017-Sep-17 23:00N 41°12' W 072°14'9 4.4
2017-Sep-17 21:04N 41°17' W 072°06'113.3
2017-Sep-17 21:00N 41°17' W 072°06'9 5.8
2017-Sep-17 19:25N 41°09' W 072°14'3 8.0
2017-Sep-17 19:00N 41°13' W 072°13'7 3.0
2017-Sep-17 16:48N 41°17' W 072°05'515.6
2017-Sep-17 16:30N 41°13' W 072°10'5 4.1
2017-Sep-17 15:20N 41°09' W 072°13'3 9.9
2017-Sep-17 15:00N 41°13' W 072°13'7 3.2
2017-Sep-17 12:55N 41°17' W 072°06'512.7
2017-Sep-17 12:30N 41°13' W 072°11'4 0.4
2017-Sep-17 01:16N 41°09' W 072°14'2 6.4
2017-Sep-17 01:00N 41°11' W 072°13'714.0
2017-Sep-17 00:30N 41°16' W 072°07'6 6.8
2017-Sep-16 23:41N 41°21' W 072°05'0 0.0
2017-Sep-16 23:31N 41°21' W 072°05'4 7.3
2017-Sep-16 23:01N 41°18' W 072°05'612.7
2017-Sep-16 22:30N 41°13' W 072°11'5 9.1
2017-Sep-16 22:00N 41°09' W 072°14'0 0.0
2017-Sep-16 21:30N 41°09' W 072°14'1 2.8
2017-Sep-16 20:59N 41°11' W 072°14'714.4
2017-Sep-16 20:30N 41°16' W 072°08'3 1.8
2017-Sep-16 18:59N 41°18' W 072°05'714.1
2017-Sep-16 18:30N 41°13' W 072°11'4 8.8
2017-Sep-16 18:00N 41°09' W 072°14'1 1.2
2017-Sep-16 17:15N 41°09' W 072°13'312.7
2017-Sep-16 17:00N 41°13' W 072°13'6 2.9
2017-Sep-16 14:51N 41°16' W 072°06'514.7
2017-Sep-16 14:30N 41°12' W 072°11'2 1.3
2017-Sep-16 13:00N 41°11' W 072°13'713.4
2017-Sep-16 12:28N 41°16' W 072°06'0 0.0
2017-Sep-16 00:49N 41°17' W 072°06'414.4
2017-Sep-16 00:30N 41°13' W 072°10'5 3.5
2017-Sep-15 23:06N 41°09' W 072°14'111.6
2017-Sep-15 23:00N 41°11' W 072°14'714.7
2017-Sep-15 22:30N 41°16' W 072°07'1 0.6
2017-Sep-15 20:57N 41°17' W 072°06'613.1
2017-Sep-15 20:29N 41°12' W 072°12'2 1.7
2017-Sep-15 19:04N 41°10' W 072°13'111.8
2017-Sep-15 19:00N 41°11' W 072°13'714.6
2017-Sep-15 18:30N 41°16' W 072°07'2 1.6
2017-Sep-15 16:57N 41°18' W 072°05'614.5
2017-Sep-15 16:30N 41°13' W 072°10'5 3.8
2017-Sep-15 15:18N 41°09' W 072°13'412.1
2017-Sep-15 15:00N 41°13' W 072°12'5 2.3
2017-Sep-15 12:45N 41°15' W 072°06'415.2
2017-Sep-15 12:30N 41°13' W 072°10'4 0.4
2017-Sep-15 01:09N 41°09' W 072°13'213.1
2017-Sep-15 00:59N 41°12' W 072°13'8 3.6
2017-Sep-14 22:53N 41°17' W 072°06'614.0
2017-Sep-14 22:27N 41°12' W 072°11'3 2.0
2017-Sep-14 21:06N 41°10' W 072°13'212.5
2017-Sep-14 20:58N 41°12' W 072°13'6 3.0
2017-Sep-14 18:52N 41°16' W 072°06'513.1
2017-Sep-14 18:30N 41°12' W 072°11'3 2.0
2017-Sep-14 17:03N 41°10' W 072°14'111.8
2017-Sep-14 17:00N 41°11' W 072°13'713.2
2017-Sep-14 16:26N 41°17' W 072°07'1 0.4
2017-Sep-14 14:49N 41°16' W 072°06'515.2
2017-Sep-14 14:28N 41°12' W 072°12'2 1.8
2017-Sep-14 13:07N 41°10' W 072°13'212.6
2017-Sep-14 12:58N 41°12' W 072°13'612.4
2017-Sep-14 12:28N 41°16' W 072°07'1 0.0
2017-Sep-14 00:45N 41°16' W 072°06'414.9
2017-Sep-14 00:30N 41°13' W 072°10'5 4.5
2017-Sep-13 23:21N 41°09' W 072°14'410.6
2017-Sep-13 22:59N 41°13' W 072°12'612.5
2017-Sep-13 22:30N 41°17' W 072°06'1 0.5
2017-Sep-13 20:52N 41°16' W 072°07'512.8
2017-Sep-13 20:27N 41°12' W 072°12'4 4.4
2017-Sep-13 19:38N 41°09' W 072°14'0 0.0
2017-Sep-13 19:29N 41°09' W 072°14'2 4.4
2017-Sep-13 18:57N 41°11' W 072°13'714.8
2017-Sep-13 18:30N 41°16' W 072°07'2 1.7
2017-Sep-13 17:04N 41°18' W 072°05'113.3
2017-Sep-13 17:00N 41°17' W 072°05'713.3
2017-Sep-13 16:30N 41°12' W 072°11'4 3.2
2017-Sep-13 15:17N 41°09' W 072°14'3 9.8
2017-Sep-13 15:00N 41°12' W 072°12'612.6
2017-Sep-13 14:30N 41°15' W 072°06'1 0.9
2017-Sep-13 12:57N 41°17' W 072°06'614.2
2017-Sep-13 12:30N 41°12' W 072°12'3 0.3
2017-Sep-13 01:12N 41°09' W 072°14'312.6
2017-Sep-13 00:59N 41°12' W 072°13'612.4
2017-Sep-13 00:29N 41°16' W 072°07'1 0.9
2017-Sep-12 22:49N 41°17' W 072°06'515.2
2017-Sep-12 22:31N 41°13' W 072°10'5 4.0
2017-Sep-12 21:12N 41°09' W 072°14'312.5
2017-Sep-12 21:00N 41°12' W 072°13'713.6
2017-Sep-12 20:31N 41°16' W 072°07'2 1.3
2017-Sep-12 18:58N 41°18' W 072°05'613.5
2017-Sep-12 18:30N 41°13' W 072°10'510.2
2017-Sep-12 18:00N 41°09' W 072°14'0 0.3
2017-Sep-12 17:11N 41°09' W 072°14'1 8.3
2017-Sep-12 17:01N 41°10' W 072°13'714.9
2017-Sep-12 16:30N 41°16' W 072°07'1 0.5
2017-Sep-12 14:44N 41°16' W 072°06'9 5.9
2017-Sep-12 13:13N 41°09' W 072°14'312.4
2017-Sep-12 12:57N 41°12' W 072°13'612.9
2017-Sep-12 12:29N 41°16' W 072°07'2 0.2
2017-Sep-12 00:53N 41°18' W 072°05'  
Track history (hours):
 
Tides and Currents Weather Stations Pressure Air Temp Water Temp Dewpoint Dewpoint Depression Visibility Wind Speed Wind Dir Waves Ship Positions

Mary Ellen

Owner: CROSS SOUND FERRY SERVICES INC, NEW LONDON, CT. More information available from US FCC via Universal Licensing System and Coast Guard Vessel Documentation Center.

Last reported at 2017-Sep-22 00:50 UTC. Time now 2017-Sep-22 10:16 UTC.
Position N 41°16' W 072°07'.

Length 80 m; draft 3.3 m.

Type: Passenger vessel. MMSI: 366898190.

Date/timePositionNaut miles runAvg speedWind from/ knotsBaromVisibWave heightAir tempDewpointWater temp
2017-Sep-22 00:50N 41°16' W 072°07'412.4
2017-Sep-22 00:30N 41°13' W 072°11'3 2.2
2017-Sep-21 23:01N 41°10' W 072°13'014.1
2017-Sep-21 23:00N 41°11' W 072°14'713.4
2017-Sep-21 22:28N 41°16' W 072°07'1 0.5
2017-Sep-21 20:54N 41°15' W 072°07'7 4.7
2017-Sep-21 19:20N 41°09' W 072°13'412.1
2017-Sep-21 18:59N 41°13' W 072°11'3 1.9
2017-Sep-21 17:08N 41°15' W 072°08'214.5
2017-Sep-21 16:59N 41°14' W 072°09'5 3.8
2017-Sep-21 15:46N 41°10' W 072°13'414.9
2017-Sep-21 15:30N 41°13' W 072°11'4 1.5
2017-Sep-21 13:02N 41°16' W 072°07'012.9
2017-Sep-21 13:00N 41°15' W 072°07'7 0.6
2017-Sep-21 01:04N 41°10' W 072°13'1 9.8
2017-Sep-21 00:59N 41°11' W 072°14'814.6
2017-Sep-21 00:25N 41°17' W 072°06'0 0.3
2017-Sep-20 22:58N 41°17' W 072°06'613.7
2017-Sep-20 22:30N 41°13' W 072°12'4 2.6
2017-Sep-20 21:10N 41°10' W 072°13'311.0
2017-Sep-20 20:54N 41°12' W 072°11'512.5
2017-Sep-20 20:30N 41°15' W 072°06'1 1.0
2017-Sep-20 19:01N 41°17' W 072°06'013.0
2017-Sep-20 18:59N 41°16' W 072°06'9 5.8
2017-Sep-20 17:21N 41°09' W 072°14'410.6
2017-Sep-20 16:59N 41°12' W 072°11'5 2.8
2017-Sep-20 15:02N 41°16' W 072°06'114.0
2017-Sep-20 14:59N 41°16' W 072°07'8 4.3
2017-Sep-20 13:05N 41°09' W 072°14'1 9.1
2017-Sep-20 13:00N 41°10' W 072°13'8 0.7
2017-Sep-20 01:04N 41°17' W 072°06'113.1
2017-Sep-20 01:00N 41°16' W 072°07'611.6
2017-Sep-20 00:30N 41°13' W 072°13'3 2.3
2017-Sep-19 23:06N 41°09' W 072°14'1 7.5
2017-Sep-19 22:59N 41°10' W 072°13'714.2
2017-Sep-19 22:30N 41°15' W 072°08'2 1.2
2017-Sep-19 20:57N 41°17' W 072°06'613.7
2017-Sep-19 20:29N 41°12' W 072°12'3 2.4
2017-Sep-19 19:14N 41°09' W 072°13'311.1
2017-Sep-19 19:00N 41°12' W 072°12'3 1.3
2017-Sep-19 16:37N 41°14' W 072°09'4 2.3
2017-Sep-19 14:59N 41°12' W 072°13'7 3.5
2017-Sep-19 12:58N 41°17' W 072°06'511.7
2017-Sep-19 12:31N 41°14' W 072°12'4 3.7
2017-Sep-19 11:27N 41°10' W 072°13'510.9
2017-Sep-19 11:00N 41°14' W 072°09'4 0.4
2017-Sep-19 02:03N 41°16' W 072°07'114.0
2017-Sep-19 01:58N 41°16' W 072°08'7 7.8
2017-Sep-19 01:00N 41°10' W 072°13'814.3
2017-Sep-19 00:25N 41°16' W 072°07'1 0.5
2017-Sep-18 22:54N 41°17' W 072°06'512.5
2017-Sep-18 22:30N 41°13' W 072°10'4 3.1
2017-Sep-18 21:09N 41°10' W 072°13'210.5
2017-Sep-18 20:57N 41°12' W 072°14'713.2
2017-Sep-18 20:27N 41°16' W 072°07'1 0.7
2017-Sep-18 18:51N 41°17' W 072°06'513.3
2017-Sep-18 18:31N 41°13' W 072°10'5 3.7
2017-Sep-18 17:13N 41°09' W 072°13'312.1
2017-Sep-18 16:59N 41°12' W 072°12'7 3.3
2017-Sep-18 14:55N 41°17' W 072°06'613.4
2017-Sep-18 14:29N 41°12' W 072°11'1 0.7
2017-Sep-18 12:51N 41°12' W 072°13'615.1
2017-Sep-18 12:27N 41°16' W 072°07'1 0.1
2017-Sep-18 00:53N 41°17' W 072°06'512.6
2017-Sep-18 00:30N 41°13' W 072°10'5 3.6
2017-Sep-17 23:14N 41°10' W 072°13'210.5
2017-Sep-17 23:00N 41°12' W 072°14'9 4.4
2017-Sep-17 21:04N 41°17' W 072°06'113.3
2017-Sep-17 21:00N 41°17' W 072°06'9 5.8
2017-Sep-17 19:25N 41°09' W 072°14'3 8.0
2017-Sep-17 19:00N 41°13' W 072°13'7 3.0
2017-Sep-17 16:48N 41°17' W 072°05'515.6
2017-Sep-17 16:30N 41°13' W 072°10'5 4.1
2017-Sep-17 15:20N 41°09' W 072°13'3 9.9
2017-Sep-17 15:00N 41°13' W 072°13'7 3.2
2017-Sep-17 12:55N 41°17' W 072°06'512.7
2017-Sep-17 12:30N 41°13' W 072°11'4 0.4
2017-Sep-17 01:16N 41°09' W 072°14'2 6.4
2017-Sep-17 01:00N 41°11' W 072°13'714.0
2017-Sep-17 00:30N 41°16' W 072°07'6 6.8
2017-Sep-16 23:41N 41°21' W 072°05'0 0.0
2017-Sep-16 23:31N 41°21' W 072°05'4 7.3
2017-Sep-16 23:01N 41°18' W 072°05'612.7
2017-Sep-16 22:30N 41°13' W 072°11'5 9.1
2017-Sep-16 22:00N 41°09' W 072°14'0 0.0
2017-Sep-16 21:30N 41°09' W 072°14'1 2.8
2017-Sep-16 20:59N 41°11' W 072°14'714.4
2017-Sep-16 20:30N 41°16' W 072°08'3 1.8
2017-Sep-16 18:59N 41°18' W 072°05'714.1
2017-Sep-16 18:30N 41°13' W 072°11'4 8.8
2017-Sep-16 18:00N 41°09' W 072°14'1 1.2
2017-Sep-16 17:15N 41°09' W 072°13'312.7
2017-Sep-16 17:00N 41°13' W 072°13'6 2.9
2017-Sep-16 14:51N 41°16' W 072°06'514.7
2017-Sep-16 14:30N 41°12' W 072°11'2 1.3
2017-Sep-16 13:00N 41°11' W 072°13'713.4
2017-Sep-16 12:28N 41°16' W 072°06'0 0.0
2017-Sep-16 00:49N 41°17' W 072°06'414.4
2017-Sep-16 00:30N 41°13' W 072°10'5 3.5
2017-Sep-15 23:06N 41°09' W 072°14'111.6
2017-Sep-15 23:00N 41°11' W 072°14'714.7
2017-Sep-15 22:30N 41°16' W 072°07'1 0.6
2017-Sep-15 20:57N 41°17' W 072°06'613.1
2017-Sep-15 20:29N 41°12' W 072°12'2 1.7
2017-Sep-15 19:04N 41°10' W 072°13'111.8
2017-Sep-15 19:00N 41°11' W 072°13'714.6
2017-Sep-15 18:30N 41°16' W 072°07'2 1.6
2017-Sep-15 16:57N 41°18' W 072°05'614.5
2017-Sep-15 16:30N 41°13' W 072°10'5 3.8
2017-Sep-15 15:18N 41°09' W 072°13'412.1
2017-Sep-15 15:00N 41°13' W 072°12'5 2.3
2017-Sep-15 12:45N 41°15' W 072°06'415.2
2017-Sep-15 12:30N 41°13' W 072°10'4 0.4
2017-Sep-15 01:09N 41°09' W 072°13'213.1
2017-Sep-15 00:59N 41°12' W 072°13'8 3.6
2017-Sep-14 22:53N 41°17' W 072°06'614.0
2017-Sep-14 22:27N 41°12' W 072°11'3 2.0
2017-Sep-14 21:06N 41°10' W 072°13'212.5
2017-Sep-14 20:58N 41°12' W 072°13'6 3.0
2017-Sep-14 18:52N 41°16' W 072°06'513.1
2017-Sep-14 18:30N 41°12' W 072°11'3 2.0
2017-Sep-14 17:03N 41°10' W 072°14'111.8
2017-Sep-14 17:00N 41°11' W 072°13'713.2
2017-Sep-14 16:26N 41°17' W 072°07'1 0.4
2017-Sep-14 14:49N 41°16' W 072°06'515.2
2017-Sep-14 14:28N 41°12' W 072°12'2 1.8
2017-Sep-14 13:07N 41°10' W 072°13'212.6
2017-Sep-14 12:58N 41°12' W 072°13'612.4
2017-Sep-14 12:28N 41°16' W 072°07'1 0.0
2017-Sep-14 00:45N 41°16' W 072°06'414.9
2017-Sep-14 00:30N 41°13' W 072°10'5 4.5
2017-Sep-13 23:21N 41°09' W 072°14'410.6
2017-Sep-13 22:59N 41°13' W 072°12'612.5
2017-Sep-13 22:30N 41°17' W 072°06'1 0.5
2017-Sep-13 20:52N 41°16' W 072°07'512.8
2017-Sep-13 20:27N 41°12' W 072°12'4 4.4
2017-Sep-13 19:38N 41°09' W 072°14'0 0.0
2017-Sep-13 19:29N 41°09' W 072°14'2 4.4
2017-Sep-13 18:57N 41°11' W 072°13'714.8
2017-Sep-13 18:30N 41°16' W 072°07'2 1.7
2017-Sep-13 17:04N 41°18' W 072°05'113.3
2017-Sep-13 17:00N 41°17' W 072°05'713.3
2017-Sep-13 16:30N 41°12' W 072°11'4 3.2
2017-Sep-13 15:17N 41°09' W 072°14'3 9.8
2017-Sep-13 15:00N 41°12' W 072°12'612.6
2017-Sep-13 14:30N 41°15' W 072°06'1 0.9
2017-Sep-13 12:57N 41°17' W 072°06'614.2
2017-Sep-13 12:30N 41°12' W 072°12'3 0.3
2017-Sep-13 01:12N 41°09' W 072°14'312.6
2017-Sep-13 00:59N 41°12' W 072°13'612.4
2017-Sep-13 00:29N 41°16' W 072°07'1 0.9
2017-Sep-12 22:49N 41°17' W 072°06'515.2
2017-Sep-12 22:31N 41°13' W 072°10'5 4.0
2017-Sep-12 21:12N 41°09' W 072°14'312.5
2017-Sep-12 21:00N 41°12' W 072°13'713.6
2017-Sep-12 20:31N 41°16' W 072°07'2 1.3
2017-Sep-12 18:58N 41°18' W 072°05'613.5
2017-Sep-12 18:30N 41°13' W 072°10'510.2
2017-Sep-12 18:00N 41°09' W 072°14'0 0.3
2017-Sep-12 17:11N 41°09' W 072°14'1 8.3
2017-Sep-12 17:01N 41°10' W 072°13'714.9
2017-Sep-12 16:30N 41°16' W 072°07'1 0.5
2017-Sep-12 14:44N 41°16' W 072°06'9 5.9
2017-Sep-12 13:13N 41°09' W 072°14'312.4
2017-Sep-12 12:57N 41°12' W 072°13'612.9
2017-Sep-12 12:29N 41°16' W 072°07'2 0.2
2017-Sep-12 00:53N 41°18' W 072°05'  

Dump ship's entire track history